| time (UTC) | temp C | wind direction | speed KPH | gust KPH | rain 1hr cm | rain 24hr cm | rain mn cm | humidity % | barometer mb |
| 20260509234325 | 15 | 315 | 1.6 | 11.3 | 0.00 | 0.84 | 0.84 | 88 | 1007.8 |
| 20260509233824 | 15 | 172 | 8.0 | 11.3 | 0.00 | 0.84 | 0.84 | 88 | 1007.7 |
| 20260509233321 | 15 | 286 | 3.2 | 11.3 | 0.00 | 0.84 | 0.84 | 87 | 1007.6 |
| 20260509232816 | 15 | 251 | 1.6 | 11.3 | 0.00 | 0.84 | 0.84 | 87 | 1007.7 |
| 20260509232314 | 15 | 311 | 0.0 | 3.2 | 0.00 | 0.84 | 0.84 | 87 | 1007.7 |
| 20260509231810 | 15 | 310 | 1.6 | 3.2 | 0.00 | 0.84 | 0.84 | 86 | 1007.7 |
| 20260509231307 | 15 | 292 | 6.4 | 11.3 | 0.00 | 0.84 | 0.84 | 85 | 1007.9 |
| 20260509230805 | 16 | 340 | 6.4 | 11.3 | 0.00 | 0.84 | 0.84 | 84 | 1007.7 |
| 20260509230257 | 16 | 300 | 1.6 | 8.0 | 0.00 | 0.84 | 0.84 | 85 | 1007.9 |
| 20260509225757 | 16 | 288 | 4.8 | 8.0 | 0.00 | 0.84 | 0.84 | 85 | 1007.9 |
| 20260509225253 | 16 | 223 | 6.4 | 11.3 | 0.00 | 0.84 | 0.84 | 85 | 1007.7 |
| 20260509224749 | 15 | 295 | 6.4 | 8.0 | 0.00 | 0.84 | 0.84 | 85 | 1007.7 |
| 20260509224246 | 15 | 304 | 9.7 | 11.3 | 0.00 | 0.84 | 0.84 | 85 | 1007.8 |
| 20260509223743 | 16 | 22 | 9.7 | 11.3 | 0.00 | 0.84 | 0.84 | 85 | 1007.7 |
| 20260509223240 | 15 | 310 | 14.5 | 16.1 | 0.00 | 0.84 | 0.84 | 85 | 1007.8 |
| 20260509222737 | 15 | 344 | 6.4 | 16.1 | 0.00 | 0.84 | 0.84 | 86 | 1007.7 |
| 20260509222232 | 16 | 318 | 3.2 | 8.0 | 0.00 | 0.84 | 0.84 | 86 | 1007.7 |
| 20260509221728 | 15 | 279 | 9.7 | 16.1 | 0.00 | 0.84 | 0.84 | 85 | 1007.8 |
| 20260509221224 | 15 | 314 | 1.6 | 8.0 | 0.00 | 0.84 | 0.84 | 86 | 1007.8 |
| 20260509220720 | 16 | 332 | 3.2 | 19.3 | 0.00 | 0.84 | 0.84 | 85 | 1008.0 |
| 20260509220218 | 16 | 255 | 8.0 | 16.1 | 0.00 | 0.84 | 0.84 | 83 | 1008.0 |
| 20260509215713 | 16 | 304 | 9.7 | 16.1 | 0.00 | 0.84 | 0.84 | 83 | 1008.0 |
| 20260509215210 | 16 | 294 | 3.2 | 16.1 | 0.00 | 0.84 | 0.84 | 85 | 1007.9 |
| 20260509214707 | 16 | 269 | 8.0 | 19.3 | 0.00 | 0.84 | 0.84 | 84 | 1008.1 |
| 20260509214204 | 16 | 209 | 9.7 | 11.3 | 0.00 | 0.84 | 0.84 | 85 | 1008.2 |
| 20260509213700 | 15 | 322 | 4.8 | 11.3 | 0.00 | 0.84 | 0.84 | 85 | 1008.2 |
| 20260509213156 | 16 | 255 | 8.0 | 16.1 | 0.00 | 0.84 | 0.84 | 85 | 1008.2 |
| 20260509212654 | 16 | 310 | 3.2 | 16.1 | 0.00 | 0.84 | 0.84 | 87 | 1008.4 |
| 20260509212150 | 16 | 296 | 14.5 | 19.3 | 0.00 | 0.84 | 0.84 | 84 | 1008.2 |
| 20260509211646 | 17 | 270 | 11.3 | 16.1 | 0.00 | 0.84 | 0.84 | 82 | 1008.1 |
| 20260509211143 | 16 | 315 | 3.2 | 11.3 | 0.00 | 0.84 | 0.84 | 86 | 1008.1 |
| 20260509210640 | 16 | 319 | 3.2 | 11.3 | 0.00 | 0.84 | 0.84 | 85 | 1008.0 |
| 20260509210137 | 16 | 272 | 11.3 | 11.3 | 0.00 | 0.84 | 0.84 | 85 | 1008.1 |
| 20260509205632 | 16 | 282 | 12.9 | 19.3 | 0.00 | 0.84 | 0.84 | 88 | 1008.1 |
| 20260509205126 | 15 | 284 | 4.8 | 8.0 | 0.00 | 0.84 | 0.84 | 87 | 1008.2 |
| 20260509204623 | 15 | 325 | 4.8 | 11.3 | 0.00 | 0.84 | 0.84 | 91 | 1008.2 |
| 20260509204120 | 14 | 279 | 6.4 | 16.1 | 0.00 | 0.84 | 0.84 | 91 | 1008.4 |
| 20260509203616 | 14 | 241 | 12.9 | 16.1 | 0.00 | 0.84 | 0.84 | 91 | 1008.5 |
| 20260509203114 | 14 | 264 | 4.8 | 8.0 | 0.00 | 0.84 | 0.84 | 93 | 1008.5 |
| 20260509202609 | 14 | 306 | 3.2 | 11.3 | 0.00 | 0.84 | 0.84 | 93 | 1008.5 |
| 20260509202105 | 14 | 306 | 3.2 | 11.3 | 0.00 | 0.84 | 0.84 | 93 | 1008.3 |
| 20260509201604 | 14 | 259 | 6.4 | 11.3 | 0.00 | 0.84 | 0.84 | 93 | 1008.4 |
| 20260509201103 | 14 | 222 | 4.8 | 8.0 | 0.00 | 0.84 | 0.84 | 94 | 1008.5 |
| 20260509200602 | 13 | 278 | 4.8 | 11.3 | 0.00 | 0.84 | 0.84 | 94 | 1008.8 |
| 20260509200059 | 13 | 314 | 3.2 | 8.0 | 0.00 | 0.84 | 0.84 | 94 | 1008.5 |
| 20260509195554 | 13 | 257 | 6.4 | 11.3 | 0.00 | 0.84 | 0.84 | 93 | 1008.7 |
| 20260509195049 | 13 | 301 | 3.2 | 16.1 | 0.00 | 0.84 | 0.84 | 93 | 1008.9 |
| 20260509194549 | 13 | 304 | 3.2 | 3.2 | 0.00 | 0.84 | 0.84 | 94 | 1008.7 |
| 20260509194047 | 13 | 312 | 1.6 | 11.3 | 0.00 | 0.84 | 0.84 | 94 | 1009.0 |
| 20260509193542 | 13 | 267 | 6.4 | 11.3 | 0.00 | 0.84 | 0.84 | 94 | 1008.8 |
| 20260509193039 | 13 | 273 | 8.0 | 8.0 | 0.00 | 0.84 | 0.84 | 94 | 1008.9 |
| 20260509192536 | 13 | 60 | 6.4 | 11.3 | 0.00 | 0.84 | 0.84 | 94 | 1009.0 |
| 20260509192031 | 13 | 277 | 8.0 | 24.1 | 0.00 | 0.84 | 0.84 | 94 | 1009.4 |
| 20260509191531 | 13 | 258 | 9.7 | 19.3 | 0.00 | 0.84 | 0.84 | 94 | 1009.2 |
| 20260509191026 | 13 | 216 | 9.7 | 16.1 | 0.00 | 0.84 | 0.84 | 95 | 1008.9 |
| 20260509190524 | 13 | 314 | 1.6 | 8.0 | 0.00 | 0.84 | 0.84 | 97 | 1009.0 |
| 20260509190022 | 13 | 255 | 6.4 | 11.3 | 0.00 | 0.84 | 0.84 | 97 | 1009.2 |
| 20260509185519 | 13 | 265 | 8.0 | 11.3 | 0.00 | 0.84 | 0.84 | 97 | 1009.0 |
| 20260509185015 | 13 | 310 | 6.4 | 16.1 | 0.00 | 0.84 | 0.84 | 98 | 1009.0 |
| 20260509184514 | 12 | 299 | 4.8 | 8.0 | 0.18 | 0.84 | 0.84 | 98 | 1009.1 |
| 20260509184009 | 12 | 273 | 3.2 | 8.0 | 0.18 | 0.84 | 0.84 | 99 | 1009.0 |
| 20260509183505 | 12 | 273 | 9.7 | 19.3 | 0.00 | 0.81 | 0.81 | 99 | 1009.2 |
| 20260509183001 | 12 | 261 | 6.4 | 11.3 | 0.18 | 0.81 | 0.81 | 99 | 1009.2 |
| 20260509182457 | 12 | 287 | 8.0 | 11.3 | 0.18 | 0.81 | 0.81 | 99 | 1009.2 |
| 20260509181954 | 12 | 308 | 4.8 | 8.0 | 0.00 | 0.76 | 0.76 | 99 | 1009.1 |
| 20260509181453 | 12 | 307 | 0.0 | 0.0 | 0.13 | 0.76 | 0.76 | 99 | 1009.2 |
| 20260509180950 | 12 | 310 | 0.0 | 3.2 | 0.30 | 0.76 | 0.76 | 99 | 1009.3 |
| 20260509180445 | 12 | 330 | 0.0 | 8.0 | 0.18 | 0.74 | 0.74 | 99 | 1009.4 |
| 20260509175942 | 12 | 267 | 3.2 | 11.3 | 0.18 | 0.71 | 0.71 | 99 | 1009.6 |
| 20260509175433 | 12 | 266 | 6.4 | 8.0 | 0.36 | 0.71 | 0.71 | 99 | 1009.4 |
| 20260509174929 | 12 | 280 | 4.8 | 8.0 | 0.30 | 0.69 | 0.69 | 99 | 1009.5 |
| 20260509174426 | 12 | 285 | 6.4 | 8.0 | 0.13 | 0.66 | 0.66 | 99 | 1009.4 |
| 20260509173922 | 12 | 254 | 4.8 | 16.1 | 0.18 | 0.64 | 0.64 | 98 | 1009.3 |
| 20260509173421 | 12 | 271 | 4.8 | 8.0 | 0.36 | 0.64 | 0.64 | 99 | 1009.4 |
| 20260509172918 | 12 | 322 | 3.2 | 11.3 | 0.18 | 0.61 | 0.61 | 98 | 1009.5 |
| 20260509172415 | 12 | 309 | 4.8 | 8.0 | 0.18 | 0.58 | 0.58 | 98 | 1009.5 |
| 20260509171911 | 12 | 283 | 3.2 | 16.1 | 0.18 | 0.58 | 0.58 | 98 | 1009.3 |
| 20260509171407 | 12 | 289 | 8.0 | 11.3 | 0.13 | 0.56 | 0.56 | 98 | 1009.4 |
| 20260509170903 | 12 | 294 | 6.4 | 8.0 | 0.13 | 0.56 | 0.56 | 98 | 1009.2 |
| 20260509170359 | 12 | 306 | 3.2 | 8.0 | 0.18 | 0.53 | 0.53 | 98 | 1009.2 |
| 20260509165855 | 12 | 238 | 12.9 | 24.1 | 0.18 | 0.53 | 0.53 | 98 | 1009.4 |
| 20260509165349 | 12 | 300 | 4.8 | 19.3 | 0.00 | 0.51 | 0.51 | 98 | 1009.3 |
| 20260509164844 | 12 | 278 | 6.4 | 11.3 | 0.18 | 0.51 | 0.51 | 98 | 1009.2 |
| 20260509164340 | 12 | 315 | 3.2 | 11.3 | 0.18 | 0.51 | 0.51 | 98 | 1009.4 |
| 20260509163837 | 12 | 322 | 6.4 | 16.1 | 0.18 | 0.46 | 0.46 | 98 | 1009.5 |
| 20260509163334 | 12 | 301 | 0.0 | 11.3 | 0.18 | 0.46 | 0.46 | 98 | 1009.5 |
| 20260509162833 | 12 | 310 | 1.6 | 11.3 | 0.00 | 0.43 | 0.43 | 98 | 1009.5 |
| 20260509162331 | 12 | 294 | 4.8 | 11.3 | 0.13 | 0.43 | 0.43 | 98 | 1009.5 |
| 20260509161828 | 12 | 245 | 3.2 | 3.2 | 0.18 | 0.43 | 0.43 | 98 | 1009.6 |
| 20260509161325 | 12 | 306 | 0.0 | 8.0 | 0.18 | 0.43 | 0.43 | 98 | 1009.7 |
| 20260509160820 | 12 | 330 | 0.0 | 8.0 | 0.18 | 0.38 | 0.38 | 98 | 1009.6 |
| 20260509160316 | 12 | 285 | 3.2 | 3.2 | 0.36 | 0.38 | 0.38 | 98 | 1009.7 |
| 20260509155812 | 12 | 334 | 4.8 | 11.3 | 0.30 | 0.36 | 0.36 | 98 | 1009.6 |
| 20260509155308 | 12 | 293 | 1.6 | 3.2 | 0.13 | 0.33 | 0.33 | 98 | 1009.6 |
| 20260509154804 | 12 | 281 | 0.0 | 8.0 | 0.18 | 0.30 | 0.30 | 97 | 1009.5 |
| 20260509154301 | 12 | 168 | 4.8 | 8.0 | 0.18 | 0.30 | 0.30 | 97 | 1009.9 |
| 20260509153758 | 12 | 284 | 1.6 | 3.2 | 0.00 | 0.28 | 0.28 | 97 | 1009.7 |
| 20260509153254 | 12 | 278 | 6.4 | 8.0 | 0.00 | 0.28 | 0.28 | 96 | 1009.6 |
| 20260509152751 | 12 | 284 | 3.2 | 3.2 | 0.18 | 0.28 | 0.28 | 96 | 1009.7 |
| 20260509152247 | 12 | 305 | 3.2 | 3.2 | 0.18 | 0.28 | 0.28 | 96 | 1010.1 |
| 20260509151745 | 12 | 299 | 0.0 | 8.0 | 0.00 | 0.25 | 0.25 | 96 | 1009.7 |
| 20260509151241 | 12 | 279 | 3.2 | 3.2 | 0.00 | 0.25 | 0.25 | 96 | 1010.1 |
| 20260509150739 | 12 | 328 | 0.0 | 3.2 | 0.18 | 0.25 | 0.25 | 96 | 1010.0 |
| 20260509150238 | 12 | 309 | 3.2 | 3.2 | 0.18 | 0.25 | 0.25 | 96 | 1010.1 |
| 20260509145734 | 12 | 325 | 0.0 | 3.2 | 0.00 | 0.23 | 0.23 | 96 | 1010.1 |
| 20260509145228 | 11 | 324 | 0.0 | 3.2 | 0.13 | 0.23 | 0.23 | 96 | 1010.1 |
| 20260509144725 | 11 | 300 | 3.2 | 8.0 | 0.13 | 0.23 | 0.23 | 96 | 1010.2 |
| 20260509144222 | 11 | 271 | 0.0 | 8.0 | 0.13 | 0.23 | 0.23 | 96 | 1010.1 |
| 20260509143719 | 11 | 296 | 3.2 | 8.0 | 0.00 | 0.20 | 0.20 | 96 | 1010.1 |
| 20260509143217 | 11 | 262 | 4.8 | 8.0 | 0.00 | 0.20 | 0.20 | 96 | 1010.1 |
| 20260509142712 | 11 | 336 | 3.2 | 8.0 | 0.00 | 0.20 | 0.20 | 96 | 1009.9 |
| 20260509142209 | 11 | 202 | 3.2 | 3.2 | 0.18 | 0.20 | 0.20 | 97 | 1010.0 |
| 20260509141704 | 11 | 321 | 0.0 | 3.2 | 0.00 | 0.18 | 0.18 | 98 | 1009.9 |
| 20260509141202 | 11 | 306 | 0.0 | 3.2 | 0.00 | 0.18 | 0.18 | 98 | 1010.0 |
| 20260509140658 | 11 | 324 | 0.0 | 0.0 | 0.18 | 0.18 | 0.18 | 98 | 1010.1 |
| 20260509140156 | 11 | 326 | 0.0 | 3.2 | 0.18 | 0.15 | 0.15 | 98 | 1010.2 |
| 20260509135653 | 11 | 320 | 0.0 | 3.2 | 0.18 | 0.15 | 0.15 | 98 | 1010.1 |
| 20260509135151 | 11 | 330 | 0.0 | 0.0 | 0.00 | 0.10 | 0.10 | 98 | 1010.1 |
| 20260509134647 | 11 | 308 | 0.0 | 3.2 | 0.13 | 0.10 | 0.10 | 98 | 1010.3 |
| 20260509134145 | 11 | 329 | 0.0 | 3.2 | 0.13 | 0.10 | 0.10 | 98 | 1010.1 |
| 20260509133642 | 11 | 340 | 0.0 | 0.0 | 0.00 | 0.10 | 0.10 | 98 | 1010.1 |
| 20260509133139 | 11 | 330 | 0.0 | 3.2 | 0.00 | 0.10 | 0.10 | 99 | 1010.4 |
| 20260509132637 | 11 | 339 | 0.0 | 0.0 | 0.00 | 0.10 | 0.10 | 99 | 1010.1 |
| 20260509132135 | 11 | 25 | 1.6 | 3.2 | 0.18 | 0.10 | 0.10 | 99 | 1010.0 |
| 20260509131631 | 11 | 7 | 0.0 | 3.2 | 0.18 | 0.10 | 0.10 | 99 | 1010.0 |
| 20260509131128 | 10 | 351 | 0.0 | 3.2 | 0.00 | 0.05 | 0.05 | 99 | 1010.1 |
| 20260509130624 | 10 | 355 | 1.6 | 3.2 | 0.00 | 0.05 | 0.05 | 99 | 1010.3 |
| 20260509130121 | 10 | 336 | 0.0 | 3.2 | 0.00 | 0.05 | 0.05 | 99 | 1010.2 |
| 20260509125617 | 10 | 320 | 0.0 | 0.0 | 0.00 | 0.05 | 0.05 | 99 | 1010.3 |
| 20260509125114 | 10 | 330 | 0.0 | 0.0 | 0.00 | 0.05 | 0.05 | 99 | 1010.4 |
| 20260509124610 | 10 | 338 | 0.0 | 3.2 | 0.00 | 0.05 | 0.05 | 99 | 1010.3 |
| 20260509124108 | 10 | 312 | 0.0 | 3.2 | 0.00 | 0.05 | 0.05 | 99 | 1010.4 |
| 20260509123606 | 10 | 325 | 0.0 | 3.2 | 0.18 | 0.05 | 0.05 | 99 | 1010.4 |
| 20260509123102 | 10 | 325 | 0.0 | 0.0 | 0.00 | 0.03 | 0.03 | 99 | 1010.4 |
| 20260509122558 | 10 | 330 | 0.0 | 0.0 | 0.00 | 0.03 | 0.03 | 99 | 1010.2 |
| 20260509122056 | 10 | 326 | 0.0 | 0.0 | 0.00 | 0.03 | 0.03 | 99 | 1010.2 |
| 20260509121552 | 10 | 325 | 0.0 | 3.2 | 0.00 | 0.03 | 0.03 | 99 | 1010.2 |
| 20260509121049 | 10 | 325 | 0.0 | 3.2 | 0.00 | 0.03 | 0.03 | 99 | 1010.2 |
| 20260509120547 | 10 | 325 | 0.0 | 0.0 | 0.00 | 0.03 | 0.03 | 99 | 1010.3 |
| 20260509120046 | 10 | 321 | 0.0 | 3.2 | 0.00 | 0.03 | 0.03 | 99 | 1010.3 |
| 20260509115542 | 10 | 335 | 0.0 | 0.0 | 0.00 | 0.03 | 0.03 | 99 | 1010.3 |
| 20260509115040 | 10 | 331 | 0.0 | 0.0 | 0.00 | 0.03 | 0.03 | 99 | 1010.3 |
| 20260509114538 | 10 | 313 | 3.2 | 3.2 | 0.00 | 0.03 | 0.03 | 99 | 1010.2 |
| 20260509114037 | 10 | 325 | 0.0 | 0.0 | 0.00 | 0.03 | 0.03 | 99 | 1010.0 |
| 20260509113534 | 10 | 325 | 0.0 | 0.0 | 0.00 | 0.03 | 0.03 | 99 | 1010.0 |
| 20260509113032 | 10 | 325 | 0.0 | 0.0 | 0.00 | 0.03 | 0.03 | 99 | 1009.9 |
| 20260509112528 | 10 | 332 | 0.0 | 0.0 | 0.00 | 0.03 | 0.03 | 99 | 1010.2 |
| 20260509112025 | 10 | 332 | 0.0 | 0.0 | 0.00 | 0.03 | 0.03 | 99 | 1010.1 |
| 20260509111522 | 10 | 332 | 0.0 | 0.0 | 0.00 | 0.03 | 0.03 | 99 | 1010.2 |
| 20260509111019 | 10 | 328 | 0.0 | 0.0 | 0.00 | 0.03 | 0.03 | 99 | 1010.1 |
| 20260509110516 | 10 | 317 | 0.0 | 0.0 | 0.00 | 0.03 | 0.03 | 99 | 1010.3 |
| 20260509110013 | 10 | 340 | 0.0 | 0.0 | 0.00 | 0.03 | 0.03 | 99 | 1010.0 |
| 20260509105511 | 10 | 340 | 0.0 | 0.0 | 0.00 | 0.03 | 0.03 | 99 | 1010.0 |
| 20260509105009 | 10 | 319 | 0.0 | 0.0 | 0.18 | 0.03 | 0.03 | 99 | 1010.1 |
| 20260509104506 | 10 | 331 | 0.0 | 0.0 | 0.18 | 0.03 | 0.03 | 99 | 1010.0 |
| 20260509104003 | 10 | 332 | 0.0 | 3.2 | 0.00 | 0.00 | 0.00 | 99 | 1010.2 |
| 20260509103501 | 10 | 342 | 0.0 | 0.0 | 0.00 | 0.00 | 0.00 | 99 | 1010.0 |
| 20260509102959 | 10 | 319 | 6.4 | 11.3 | 0.00 | 0.00 | 0.00 | 99 | 1010.2 |
| 20260509102456 | 10 | 57 | 6.4 | 8.0 | 0.00 | 0.00 | 0.00 | 99 | 1009.7 |
| 20260509101952 | 10 | 338 | 0.0 | 0.0 | 0.00 | 0.00 | 0.00 | 99 | 1010.0 |
| 20260509101448 | 10 | 338 | 0.0 | 0.0 | 0.00 | 0.00 | 0.00 | 99 | 1009.7 |
| 20260509100945 | 10 | 338 | 0.0 | 0.0 | 0.00 | 0.00 | 0.00 | 99 | 1010.0 |
| 20260509100442 | 10 | 338 | 0.0 | 0.0 | 0.00 | 0.00 | 0.00 | 99 | 1010.0 |
| 20260509095939 | 10 | 338 | 0.0 | 0.0 | 0.00 | 0.00 | 0.00 | 99 | 1010.0 |
| 20260509095436 | 10 | 338 | 0.0 | 0.0 | 0.00 | 0.00 | 0.00 | 99 | 1010.1 |
| 20260509094933 | 10 | 338 | 0.0 | 0.0 | 0.00 | 0.00 | 0.00 | 99 | 1010.0 |
| 20260509094429 | 10 | 338 | 0.0 | 0.0 | 0.00 | 0.00 | 0.00 | 99 | 1010.0 |
| 20260509093927 | 10 | 341 | 0.0 | 0.0 | 0.00 | 0.00 | 0.00 | 99 | 1010.2 |
| 20260509093424 | 10 | 353 | 0.0 | 3.2 | 0.00 | 0.00 | 0.00 | 99 | 1010.1 |
| 20260509092923 | 10 | 353 | 0.0 | 3.2 | 0.00 | 0.00 | 0.00 | 99 | 1010.2 |
| 20260509092420 | 10 | 336 | 0.0 | 0.0 | 0.00 | 0.00 | 0.00 | 99 | 1010.3 |
| 20260509091919 | 10 | 336 | 0.0 | 0.0 | 0.00 | 0.00 | 0.00 | 99 | 1010.3 |
| 20260509091415 | 10 | 328 | 1.6 | 3.2 | 0.00 | 0.00 | 0.00 | 99 | 1010.5 |
| 20260509090912 | 10 | 329 | 0.0 | 0.0 | 0.00 | 0.00 | 0.00 | 99 | 1010.5 |
| 20260509090409 | 10 | 332 | 0.0 | 0.0 | 0.00 | 0.00 | 0.00 | 99 | 1010.5 |
| 20260509085907 | 10 | 332 | 0.0 | 0.0 | 0.00 | 0.00 | 0.00 | 99 | 1010.5 |
| 20260509085404 | 10 | 332 | 0.0 | 0.0 | 0.00 | 0.00 | 0.00 | 99 | 1010.5 |
| 20260509084900 | 10 | 332 | 0.0 | 0.0 | 0.00 | 0.00 | 0.00 | 99 | 1010.6 |
| 20260509084357 | 10 | 332 | 0.0 | 0.0 | 0.00 | 0.00 | 0.00 | 99 | 1010.3 |
| 20260509083855 | 10 | 347 | 0.0 | 0.0 | 0.00 | 0.00 | 0.00 | 99 | 1010.1 |
| 20260509083351 | 10 | 344 | 0.0 | 3.2 | 0.00 | 0.00 | 0.00 | 99 | 1010.4 |
| 20260509082848 | 10 | 332 | 0.0 | 0.0 | 0.00 | 0.00 | 0.00 | 99 | 1010.3 |
| 20260509082345 | 10 | 332 | 0.0 | 0.0 | 0.00 | 0.00 | 0.00 | 99 | 1010.3 |
| 20260509081842 | 10 | 332 | 0.0 | 0.0 | 0.00 | 0.00 | 0.00 | 99 | 1010.3 |
| 20260509081339 | 10 | 338 | 0.0 | 0.0 | 0.00 | 0.00 | 0.00 | 99 | 1010.3 |
| 20260509080837 | 10 | 351 | 4.8 | 8.0 | 0.00 | 0.00 | 0.00 | 98 | 1010.2 |
| 20260509080335 | 10 | 351 | 1.6 | 3.2 | 0.00 | 0.00 | 0.00 | 98 | 1010.3 |
| 20260509075833 | 10 | 354 | 1.6 | 3.2 | 0.00 | 0.00 | 0.00 | 98 | 1010.5 |
| 20260509075329 | 10 | 340 | 0.0 | 0.0 | 0.00 | 0.00 | 0.00 | 98 | 1010.7 |
| 20260509074827 | 10 | 343 | 0.0 | 0.0 | 0.00 | 0.00 | 0.00 | 98 | 1010.5 |
| 20260509074324 | 10 | 353 | 0.0 | 3.2 | 0.00 | 0.00 | 0.00 | 98 | 1010.6 |
| 20260509073820 | 10 | 347 | 0.0 | 3.2 | 0.00 | 0.00 | 0.00 | 98 | 1010.8 |
| 20260509073317 | 10 | 321 | 0.0 | 3.2 | 0.00 | 0.00 | 0.00 | 98 | 1010.7 |
| 20260509072814 | 10 | 342 | 0.0 | 0.0 | 0.00 | 0.00 | 0.00 | 98 | 1010.9 |
| 20260509072310 | 10 | 342 | 0.0 | 0.0 | 0.00 | 0.00 | 0.00 | 98 | 1010.8 |
| 20260509071807 | 10 | 353 | 0.0 | 3.2 | 0.00 | 0.00 | 0.00 | 98 | 1010.9 |
| 20260509071304 | 10 | 351 | 1.6 | 3.2 | 0.00 | 0.00 | 0.00 | 98 | 1010.8 |
| 20260509070801 | 10 | 341 | 0.0 | 0.0 | 0.00 | 0.00 | 0.00 | 98 | 1010.9 |
| 20260509070257 | 10 | 340 | 0.0 | 0.0 | 0.00 | 0.00 | 0.00 | 97 | 1010.8 |
| 20260509065754 | 10 | 340 | 0.0 | 0.0 | 0.00 | 0.00 | 0.00 | 97 | 1011.0 |
| 20260509065250 | 10 | 340 | 0.0 | 0.0 | 0.00 | 0.00 | 0.00 | 97 | 1011.1 |
| 20260509064746 | 10 | 340 | 0.0 | 0.0 | 0.00 | 0.00 | 0.00 | 97 | 1010.9 |
| 20260509064244 | 10 | 340 | 0.0 | 0.0 | 0.00 | 0.00 | 0.00 | 97 | 1010.9 |
| 20260509063741 | 11 | 343 | 0.0 | 0.0 | 0.00 | 0.00 | 0.00 | 97 | 1010.8 |
| 20260509063237 | 11 | 350 | 0.0 | 0.0 | 0.00 | 0.00 | 0.00 | 97 | 1011.0 |
| 20260509062735 | 11 | 334 | 0.0 | 0.0 | 0.00 | 0.00 | 0.00 | 97 | 1011.3 |
| 20260509062232 | 10 | 334 | 0.0 | 0.0 | 0.00 | 0.00 | 0.00 | 97 | 1011.2 |
| 20260509061729 | 10 | 334 | 0.0 | 0.0 | 0.00 | 0.00 | 0.00 | 97 | 1011.4 |
| 20260509061227 | 10 | 334 | 0.0 | 0.0 | 0.00 | 0.00 | 0.00 | 97 | 1011.5 |
| 20260509060724 | 11 | 334 | 0.0 | 0.0 | 0.00 | 0.00 | 0.00 | 97 | 1011.7 |
| 20260509060220 | 10 | 333 | 0.0 | 0.0 | 0.00 | 0.00 | 0.00 | 97 | 1011.6 |
| 20260509055716 | 10 | 333 | 0.0 | 0.0 | 0.00 | 0.00 | 0.00 | 97 | 1011.4 |
| 20260509055212 | 11 | 332 | 0.0 | 0.0 | 0.00 | 0.00 | 0.00 | 97 | 1011.6 |
| 20260509054708 | 11 | 330 | 0.0 | 0.0 | 0.00 | 0.00 | 0.00 | 97 | 1011.8 |
| 20260509054206 | 11 | 328 | 0.0 | 0.0 | 0.00 | 0.00 | 0.00 | 97 | 1011.7 |
| 20260509053704 | 11 | 330 | 0.0 | 0.0 | 0.00 | 0.00 | 0.00 | 97 | 1011.8 |
| 20260509053200 | 11 | 332 | 0.0 | 0.0 | 0.00 | 0.00 | 0.00 | 97 | 1011.7 |
| 20260509052659 | 11 | 333 | 0.0 | 0.0 | 0.00 | 0.00 | 0.00 | 97 | 1011.8 |
| 20260509052156 | 11 | 332 | 0.0 | 0.0 | 0.00 | 0.00 | 0.00 | 96 | 1011.9 |
| 20260509051654 | 11 | 332 | 0.0 | 0.0 | 0.00 | 0.00 | 0.00 | 96 | 1011.7 |
| 20260509051151 | 11 | 334 | 0.0 | 0.0 | 0.00 | 0.00 | 0.00 | 96 | 1012.1 |
| 20260509050648 | 11 | 334 | 0.0 | 0.0 | 0.00 | 0.00 | 0.00 | 96 | 1012.1 |
| 20260509050144 | 11 | 330 | 0.0 | 0.0 | 0.00 | 0.00 | 0.00 | 96 | 1012.2 |
| 20260509045642 | 11 | 330 | 0.0 | 0.0 | 0.00 | 0.00 | 0.00 | 96 | 1012.1 |
| 20260509045138 | 10 | 335 | 1.6 | 3.2 | 0.00 | 0.00 | 0.00 | 96 | 1012.1 |
| 20260509044636 | 10 | 333 | 0.0 | 0.0 | 0.00 | 0.00 | 0.00 | 96 | 1011.8 |
| 20260509044133 | 11 | 331 | 0.0 | 0.0 | 0.00 | 0.00 | 0.00 | 96 | 1012.0 |
| 20260509043629 | 11 | 337 | 0.0 | 0.0 | 0.00 | 0.00 | 0.00 | 97 | 1012.0 |
| 20260509043125 | 11 | 337 | 0.0 | 0.0 | 0.00 | 0.00 | 0.00 | 97 | 1012.0 |
| 20260509042622 | 11 | 337 | 0.0 | 0.0 | 0.00 | 0.00 | 0.00 | 97 | 1011.7 |
| 20260509042117 | 11 | 337 | 0.0 | 0.0 | 0.00 | 0.00 | 0.00 | 97 | 1011.4 |
| 20260509041615 | 11 | 337 | 0.0 | 0.0 | 0.00 | 0.00 | 0.00 | 97 | 1011.4 |
| 20260509041112 | 11 | 337 | 0.0 | 0.0 | 0.00 | 0.00 | 0.00 | 97 | 1011.2 |
| 20260509040611 | 11 | 341 | 0.0 | 0.0 | 0.00 | 0.00 | 0.00 | 96 | 1011.4 |
| 20260509040107 | 11 | 338 | 0.0 | 0.0 | 0.00 | 0.10 | 0.10 | 96 | 1011.7 |
| 20260509035603 | 11 | 328 | 0.0 | 0.0 | 0.00 | 0.10 | 0.10 | 96 | 1011.5 |
| 20260509035100 | 11 | 336 | 0.0 | 0.0 | 0.00 | 0.10 | 0.10 | 96 | 1011.6 |
| 20260509034558 | 11 | 328 | 0.0 | 0.0 | 0.00 | 0.10 | 0.10 | 96 | 1011.7 |
| 20260509034055 | 11 | 6 | 0.0 | 3.2 | 0.00 | 0.10 | 0.10 | 96 | 1011.7 |
| 20260509033552 | 11 | 334 | 0.0 | 0.0 | 0.00 | 0.10 | 0.10 | 95 | 1011.6 |
| 20260509033049 | 11 | 334 | 0.0 | 0.0 | 0.00 | 0.10 | 0.10 | 95 | 1011.9 |
| 20260509032547 | 11 | 334 | 0.0 | 0.0 | 0.00 | 0.10 | 0.10 | 95 | 1011.9 |
| 20260509032043 | 11 | 331 | 0.0 | 0.0 | 0.00 | 0.10 | 0.10 | 94 | 1011.9 |
| 20260509031541 | 11 | 331 | 0.0 | 0.0 | 0.00 | 0.10 | 0.10 | 94 | 1011.8 |
| 20260509031038 | 11 | 335 | 0.0 | 0.0 | 0.00 | 0.10 | 0.10 | 93 | 1011.9 |
| 20260509030536 | 11 | 333 | 0.0 | 0.0 | 0.00 | 0.10 | 0.10 | 93 | 1011.9 |
| 20260509030033 | 11 | 342 | 0.0 | 0.0 | 0.00 | 0.10 | 0.10 | 93 | 1011.9 |
| 20260509025529 | 11 | 331 | 0.0 | 0.0 | 0.00 | 0.10 | 0.10 | 93 | 1011.9 |
| 20260509025025 | 11 | 336 | 0.0 | 0.0 | 0.00 | 0.10 | 0.10 | 92 | 1011.7 |
| 20260509024520 | 11 | 328 | 0.0 | 0.0 | 0.00 | 0.10 | 0.10 | 92 | 1011.8 |
| 20260509024017 | 11 | 336 | 0.0 | 0.0 | 0.00 | 0.10 | 0.10 | 91 | 1011.8 |
| 20260509023515 | 11 | 328 | 0.0 | 0.0 | 0.00 | 0.10 | 0.10 | 91 | 1011.9 |
| 20260509023011 | 11 | 331 | 0.0 | 0.0 | 0.00 | 0.10 | 0.10 | 90 | 1012.0 |
| 20260509022508 | 12 | 333 | 0.0 | 0.0 | 0.00 | 0.10 | 0.10 | 88 | 1012.0 |
| 20260509022006 | 12 | 331 | 0.0 | 0.0 | 0.00 | 0.10 | 0.10 | 87 | 1012.2 |
| 20260509021502 | 12 | 331 | 0.0 | 0.0 | 0.13 | 0.10 | 0.10 | 86 | 1012.0 |
| 20260509020959 | 12 | 332 | 0.0 | 0.0 | 0.13 | 0.10 | 0.10 | 84 | 1012.1 |
| 20260509020458 | 12 | 330 | 0.0 | 0.0 | 0.00 | 0.10 | 0.10 | 82 | 1012.1 |
| 20260509015954 | 12 | 328 | 0.0 | 0.0 | 0.00 | 0.10 | 0.10 | 82 | 1011.9 |
| 20260509015453 | 12 | 327 | 0.0 | 0.0 | 0.00 | 0.10 | 0.10 | 82 | 1011.7 |
| 20260509014950 | 12 | 326 | 0.0 | 0.0 | 0.00 | 0.10 | 0.10 | 82 | 1011.9 |
| 20260509014447 | 12 | 332 | 0.0 | 0.0 | 0.00 | 0.10 | 0.10 | 82 | 1011.7 |
| 20260509013937 | 12 | 319 | 0.0 | 3.2 | 0.00 | 0.10 | 0.10 | 82 | 1011.5 |
| 20260509013434 | 12 | 330 | 0.0 | 0.0 | 0.00 | 0.10 | 0.10 | 82 | 1011.6 |
| 20260509012930 | 12 | 328 | 0.0 | 0.0 | 0.00 | 0.10 | 0.10 | 81 | 1011.5 |
| 20260509012426 | 12 | 328 | 0.0 | 0.0 | 0.00 | 0.10 | 0.10 | 81 | 1011.6 |
| 20260509011923 | 12 | 328 | 0.0 | 0.0 | 0.00 | 0.10 | 0.10 | 80 | 1011.5 |
| 20260509011421 | 12 | 320 | 0.0 | 0.0 | 0.00 | 0.10 | 0.10 | 80 | 1011.6 |
| 20260509010919 | 12 | 328 | 0.0 | 0.0 | 0.00 | 0.10 | 0.10 | 80 | 1011.5 |
| 20260509010416 | 12 | 326 | 0.0 | 0.0 | 0.00 | 0.10 | 0.10 | 79 | 1011.4 |
| 20260509005912 | 12 | 325 | 0.0 | 0.0 | 0.00 | 0.10 | 0.10 | 79 | 1011.2 |
| 20260509005411 | 12 | 307 | 1.6 | 3.2 | 0.00 | 0.10 | 0.10 | 78 | 1011.3 |
| 20260509004911 | 12 | 314 | 0.0 | 0.0 | 0.00 | 0.10 | 0.10 | 77 | 1011.3 |
| 20260509004407 | 13 | 327 | 0.0 | 0.0 | 0.00 | 0.10 | 0.10 | 78 | 1011.3 |
| 20260509003905 | 12 | 317 | 0.0 | 3.2 | 0.00 | 0.10 | 0.10 | 78 | 1011.4 |
| 20260509003403 | 12 | 325 | 0.0 | 0.0 | 0.00 | 0.10 | 0.10 | 80 | 1011.3 |
| 20260509002859 | 12 | 325 | 0.0 | 0.0 | 0.00 | 0.10 | 0.10 | 80 | 1011.2 |
| 20260509002357 | 12 | 334 | 0.0 | 0.0 | 0.00 | 0.10 | 0.10 | 81 | 1011.3 |
| 20260509001855 | 12 | 334 | 0.0 | 0.0 | 0.00 | 0.10 | 0.10 | 80 | 1011.1 |
| 20260509001350 | 13 | 336 | 0.0 | 0.0 | 0.00 | 0.10 | 0.10 | 81 | 1011.1 |
| 20260509000848 | 13 | 314 | 1.6 | 3.2 | 0.00 | 0.10 | 0.10 | 81 | 1011.0 |
| 20260509000348 | 13 | 334 | 0.0 | 0.0 | 0.00 | 0.10 | 0.10 | 80 | 1011.1 |
| 20260508235842 | 13 | 334 | 0.0 | 0.0 | 0.00 | 0.10 | 0.10 | 80 | 1010.9 |
| 20260508235339 | 13 | 315 | 0.0 | 3.2 | 0.00 | 0.10 | 0.10 | 80 | 1011.2 |
| 20260508234836 | 13 | 327 | 0.0 | 0.0 | 0.00 | 0.10 | 0.10 | 80 | 1011.1 |